tititudorancea.com
Station Historical Data
Daily Summary for April 28, 2018 Units:  Metric    English   Both
« Previous Day
Next Day »
Daily Weekly Monthly Yearly Custom
  High: Low: Average:
Temperature: -17.8 °C 6.7 °C 12.2 °C
Dew Point: -17.8 °C 3.1 °C 7.3 °C
Humidity: Humidity % 32 % 76 %
Wind Speed: 0 km/h 0 km/h 6.1 km/h
Wind Gust: 0 km/h - -
Wind:- - SSW
Pressure: 0 hPa 1023.9 hPa -
Precipitation: 0 mm    
Historical Graphs
 
 
Ararat weather Find more about Weather in Ararat, AU


 



 


Tabular Data for April 28, 2018
Time Temperature Dew Point Pressure Wind Wind Speed Wind Gust Humidity Rainfall Rate (Hourly)
-17.8 °C -17.8 °C 0 hPa Calm     Humidity % 0 mm
00:00 9.5 °C 7.6 °C 1026 hPa South 2.7 km/h 8 km/h 88 % 0 mm
00:05 9.4 °C 7.5 °C 1026 hPa South 9.5 km/h 14.8 km/h 88 % 0 mm
00:10 9.3 °C 7.4 °C 1026 hPa South 5.6 km/h 5.6 km/h 88 % 0 mm
00:15 9.2 °C 7.3 °C 1026 hPa South 8.9 km/h 11.1 km/h 88 % 0 mm
00:20 9.2 °C 7.4 °C 1026 hPa South 8.5 km/h 11.1 km/h 89 % 0 mm
00:25 9.1 °C 7.4 °C 1026 hPa South 6.8 km/h 13 km/h 89 % 0 mm
00:30 9.2 °C 7.4 °C 1026 hPa South 9.5 km/h 13 km/h 89 % 0 mm
00:35 9.1 °C 7.4 °C 1026 hPa South 8.5 km/h 13 km/h 89 % 0 mm
00:40 9.1 °C 7.6 °C 1026 hPa South 5.6 km/h 9.3 km/h 90 % 0 mm
00:45 9.2 °C 7.6 °C 1026 hPa South 8.7 km/h 13 km/h 90 % 0 mm
00:50 9.2 °C 7.6 °C 1026 hPa South 8 km/h 11.1 km/h 90 % 0 mm
00:55 9.1 °C 7.6 °C 1026 hPa South 7.6 km/h 11.1 km/h 90 % 0 mm
01:00 9.1 °C 7.6 °C 1026 hPa South 6 km/h 9.3 km/h 90 % 0 mm
01:05 9.1 °C 7.6 °C 1026 hPa South 4.7 km/h 7.4 km/h 90 % 0 mm
01:10 9.1 °C 7.6 °C 1026 hPa South 7.4 km/h 9.3 km/h 90 % 0 mm
01:15 9.1 °C 7.6 °C 1026 hPa South 8.2 km/h 14.5 km/h 90 % 0 mm
01:20 9.2 °C 7.6 °C 1026 hPa South 6.3 km/h 11.1 km/h 90 % 0 mm
01:25 9.1 °C 7.6 °C 1026 hPa South 8.2 km/h 13 km/h 90 % 0 mm
01:30 9.1 °C 7.6 °C 1026 hPa South 5.5 km/h 9.3 km/h 90 % 0 mm
01:35 9.1 °C 7.5 °C 1025.6 hPa South 6.9 km/h 9.3 km/h 90 % 0 mm
01:40 8.9 °C 7.4 °C 1025.6 hPa South 9 km/h 9.3 km/h 90 % 0 mm
01:45 8.9 °C 7.3 °C 1026 hPa South 7.6 km/h 11.1 km/h 90 % 0 mm
01:50 8.8 °C 7.4 °C 1026 hPa South 8.4 km/h 14.8 km/h 91 % 0 mm
01:55 8.7 °C 7.3 °C 1025.6 hPa South 7.6 km/h 14.8 km/h 91 % 0 mm
02:00 8.7 °C 7.3 °C 1025.6 hPa South 6.9 km/h 9.3 km/h 91 % 0 mm
02:05 8.6 °C 7.2 °C 1025.6 hPa South 5.8 km/h 9.3 km/h 91 % 0 mm
02:10 8.4 °C 7.1 °C 1025.6 hPa South 6 km/h 9.7 km/h 91 % 0 mm
02:15 8.4 °C 7.1 °C 1025.6 hPa South 6.1 km/h 8 km/h 91 % 0 mm
02:20 8.4 °C 7 °C 1025.6 hPa South 4.2 km/h 5.6 km/h 91 % 0 mm
02:25 8.4 °C 7.2 °C 1025.6 hPa South 8.5 km/h 13 km/h 92 % 0 mm
02:30 8.4 °C 7.2 °C 1025.6 hPa South 5.3 km/h 6.4 km/h 92 % 0 mm
02:35 8.3 °C 7.1 °C 1025.6 hPa South 6.8 km/h 7.4 km/h 92 % 0 mm
02:40 8.2 °C 6.9 °C 1025.6 hPa North 5.1 km/h 9.7 km/h 92 % 0 mm
02:46 8.2 °C 6.9 °C 1025.6 hPa South 6 km/h 11.3 km/h 92 % 0 mm
02:51 8.1 °C 6.9 °C 1025.6 hPa South 8.4 km/h 8.4 km/h 92 % 0 mm
02:56 8.2 °C 6.9 °C 1025.6 hPa South 6.6 km/h 7.4 km/h 92 % 0 mm
03:01 8.1 °C 6.9 °C 1025.6 hPa South 5.8 km/h 9.3 km/h 92 % 0 mm
03:06 8 °C 6.8 °C 1025.6 hPa South 5.3 km/h 7.4 km/h 92 % 0 mm
03:11 8 °C 6.9 °C 1025.6 hPa South 5.5 km/h 7.4 km/h 93 % 0 mm
03:16 7.9 °C 6.9 °C 1025.3 hPa North 3.7 km/h 5.6 km/h 93 % 0 mm
03:21 7.9 °C 6.8 °C 1025.3 hPa South 4.2 km/h 5.6 km/h 93 % 0 mm
03:26 7.8 °C 6.8 °C 1025.3 hPa North 3.4 km/h 11.1 km/h 93 % 0 mm
03:31 7.8 °C 6.8 °C 1025.3 hPa South 4.2 km/h 5.6 km/h 93 % 0 mm
03:36 7.9 °C 6.8 °C 1025.6 hPa North 7.2 km/h 13 km/h 93 % 0 mm
03:41 7.8 °C 6.8 °C 1025.3 hPa North 4.3 km/h 5.6 km/h 93 % 0 mm
03:46 7.7 °C 6.7 °C 1025.3 hPa North 2.9 km/h 5.6 km/h 93 % 0 mm
03:51 7.7 °C 6.6 °C 1025.3 hPa South 5.3 km/h 7.4 km/h 93 % 0 mm
03:56 7.6 °C 6.6 °C 1025.3 hPa South 4.2 km/h 5.6 km/h 93 % 0 mm
04:01 7.6 °C 6.5 °C 1025.3 hPa South 5.1 km/h 7.4 km/h 93 % 0 mm
04:06 7.6 °C 6.7 °C 1025.3 hPa South 5.5 km/h 8 km/h 94 % 0 mm
04:11 7.6 °C 6.7 °C 1025.6 hPa South 4.3 km/h 5.6 km/h 94 % 0 mm
04:16 7.6 °C 6.7 °C 1025.6 hPa North 5.5 km/h 9.3 km/h 94 % 0 mm
04:21 7.5 °C 6.6 °C 1025.3 hPa South 6.4 km/h 7.4 km/h 94 % 0 mm
04:26 7.4 °C 6.6 °C 1025.6 hPa North 6.3 km/h 7.4 km/h 94 % 0 mm
04:31 7.4 °C 6.5 °C 1025.6 hPa South 5.1 km/h 7.4 km/h 94 % 0 mm
04:36 7.3 °C 6.4 °C 1025.6 hPa North 7.1 km/h 9.7 km/h 94 % 0 mm
04:41 7.3 °C 6.4 °C 1025.6 hPa North 5.3 km/h 9.7 km/h 94 % 0 mm
04:46 7.2 °C 6.3 °C 1025.6 hPa South 6.9 km/h 9.3 km/h 94 % 0 mm
04:51 7.2 °C 6.3 °C 1025.6 hPa North 3.5 km/h 5.6 km/h 94 % 0 mm
04:56 7.2 °C 6.3 °C 1025.6 hPa North 3.2 km/h 5.6 km/h 94 % 0 mm
05:01 7.2 °C 6.3 °C 1025.6 hPa South 4.7 km/h 5.6 km/h 94 % 0 mm
05:06 7.2 °C 6.4 °C 1025.6 hPa South 6.9 km/h 9.3 km/h 95 % 0 mm
05:11 7.2 °C 6.4 °C 1025.6 hPa South 4.7 km/h 7.4 km/h 95 % 0 mm
05:16 7.1 °C 6.2 °C 1025.6 hPa North 5 km/h 6.4 km/h 94 % 0 mm
05:21 7.1 °C 6.4 °C 1025.6 hPa North 7.4 km/h 11.1 km/h 95 % 0 mm
05:26 7.1 °C 6.4 °C 1025.6 hPa South 6.1 km/h 7.4 km/h 95 % 0 mm
05:31 7.1 °C 6.3 °C 1025.6 hPa North 7.4 km/h 9.3 km/h 95 % 0 mm
05:36 7 °C 6.3 °C 1025.6 hPa South 6.3 km/h 8 km/h 95 % 0 mm
05:41 7 °C 6.3 °C 1025.6 hPa South 6.8 km/h 9.3 km/h 95 % 0 mm
05:46 7 °C 6.3 °C 1025.6 hPa South 6.1 km/h 12.9 km/h 95 % 0 mm
05:51 7 °C 6.3 °C 1025.6 hPa South 7.4 km/h 11.1 km/h 95 % 0 mm
05:56 6.9 °C 6.2 °C 1025.6 hPa South 4 km/h 5.6 km/h 95 % 0 mm
06:01 6.9 °C 6.2 °C 1025.6 hPa North 4.2 km/h 6.4 km/h 95 % 0 mm
06:06 6.9 °C 6.2 °C 1025.6 hPa South 4 km/h 5.6 km/h 95 % 0 mm
06:11 6.9 °C 6.2 °C 1026 hPa North 5.6 km/h 7.4 km/h 95 % 0 mm
06:16 6.9 °C 6.2 °C 1026 hPa North 5.3 km/h 9.3 km/h 95 % 0 mm
06:21 6.9 °C 6.2 °C 1026 hPa South 4.5 km/h 7.4 km/h 95 % 0 mm
06:26 6.9 °C 6.2 °C 1026 hPa South 2.4 km/h 6.4 km/h 95 % 0 mm
06:31 6.9 °C 6.2 °C 1026 hPa South 1.4 km/h 3.7 km/h 95 % 0 mm
06:36 6.9 °C 6.2 °C 1026 hPa North 1 km/h 3.7 km/h 95 % 0 mm
06:41 6.9 °C 6.2 °C 1026 hPa South 2.7 km/h 5.6 km/h 95 % 0 mm
06:46 7 °C 6.3 °C 1026 hPa South 3.7 km/h 9.3 km/h 95 % 0 mm
06:51 7.1 °C 6.5 °C 1026 hPa South 3.2 km/h 5.6 km/h 96 % 0 mm
06:56 7.2 °C 6.6 °C 1026 hPa South 3.5 km/h 5.6 km/h 96 % 0 mm
07:01 7.2 °C 6.4 °C 1026 hPa North 2.4 km/h 3.7 km/h 95 % 0 mm
07:06 7 °C 6.3 °C 1026 hPa South 4.2 km/h 5.6 km/h 95 % 0 mm
07:11 7 °C 6.3 °C 1026 hPa North 5.5 km/h 6.4 km/h 95 % 0 mm
07:16 6.9 °C 6.2 °C 1026 hPa North 2.7 km/h 6.4 km/h 95 % 0 mm
07:21 6.9 °C 6.2 °C 1026.3 hPa South 1.6 km/h 3.7 km/h 95 % 0 mm
07:26 6.9 °C 6.2 °C 1026.3 hPa North 0.8 km/h 3.7 km/h 95 % 0 mm
07:31 6.8 °C 6.1 °C 1026.3 hPa South 2.6 km/h 5.6 km/h 95 % 0 mm
07:36 6.7 °C 6 °C 1026.3 hPa South 3.9 km/h 5.6 km/h 95 % 0 mm
07:41 6.7 °C 6 °C 1026.3 hPa South 1.9 km/h 5.6 km/h 95 % 0 mm
07:46 6.7 °C 6 °C 1026.3 hPa Calm     95 % 0 mm
07:51 6.7 °C 6 °C 1026.3 hPa North 0.5 km/h 1.9 km/h 95 % 0 mm
07:56 6.7 °C 6.1 °C 1026.3 hPa Calm     96 % 0 mm
08:01 6.8 °C 6.2 °C 1026.3 hPa Calm     96 % 0 mm
08:06 6.8 °C 6.2 °C 1026.3 hPa Calm     96 % 0 mm
08:11 6.9 °C 6.3 °C 1026.3 hPa Calm     96 % 0 mm
08:16 7 °C 6.4 °C 1026.3 hPa Calm     96 % 0 mm
08:21 7.1 °C 6.4 °C 1026.3 hPa Calm     96 % 0 mm
08:26 7.2 °C 6.6 °C 1026.6 hPa Calm     96 % 0 mm
08:31 7.3 °C 6.7 °C 1026.6 hPa Calm     96 % 0 mm
08:36 7.6 °C 6.9 °C 1026.6 hPa South 0.5 km/h 3.7 km/h 96 % 0 mm
08:41 7.4 °C 6.8 °C 1026.6 hPa South 2.3 km/h 3.7 km/h 96 % 0 mm
08:46 7.5 °C 6.9 °C 1026.6 hPa South 3.7 km/h 3.7 km/h 96 % 0 mm
08:51 7.6 °C 6.9 °C 1026.6 hPa Calm     96 % 0 mm
08:56 7.7 °C 7.1 °C 1026.6 hPa Calm     96 % 0 mm
09:01 8 °C 7.4 °C 1026.6 hPa South 2.4 km/h 3.7 km/h 96 % 0 mm
09:06 8.1 °C 7.4 °C 1026.6 hPa South 4.5 km/h 6.4 km/h 96 % 0 mm
09:11 8.1 °C 7.5 °C 1026.6 hPa South 1.1 km/h 3.7 km/h 96 % 0 mm
09:16 7.9 °C 7.2 °C 1026.6 hPa Calm     95 % 0 mm
09:21 8.1 °C 7.4 °C 1026.6 hPa South 3.4 km/h 3.7 km/h 96 % 0 mm
09:26 8.4 °C 7.8 °C 1026.6 hPa South 1.6 km/h 3.7 km/h 96 % 0 mm
09:31 8.6 °C 7.9 °C 1026.6 hPa South 1.8 km/h 3.7 km/h 96 % 0 mm
09:36 8.7 °C 8.1 °C 1026.6 hPa South 2.4 km/h 5.6 km/h 96 % 0 mm
09:41 8.8 °C 8.2 °C 1026.6 hPa South 4.7 km/h 5.6 km/h 96 % 0 mm
09:46 9.1 °C 8.4 °C 1026.6 hPa South 1.1 km/h 5.6 km/h 96 % 0 mm
09:51 9.6 °C 8.9 °C 1026.6 hPa South 4.5 km/h 5.6 km/h 96 % 0 mm
09:56 9.8 °C 9.2 °C 1026.6 hPa South 1.8 km/h 3.2 km/h 96 % 0 mm
10:01 10.2 °C 9.6 °C 1026.6 hPa South 2.7 km/h 5.6 km/h 96 % 0 mm
10:06 10.3 °C 9.7 °C 1026.6 hPa South 1.9 km/h 3.7 km/h 96 % 0 mm
10:11 10.6 °C 9.9 °C 1026.6 hPa South 4 km/h 5.6 km/h 96 % 0 mm
10:16 10.6 °C 9.8 °C 1026.6 hPa South 0.8 km/h 5.6 km/h 95 % 0 mm
10:21 10.8 °C 10 °C 1026.3 hPa South 2.4 km/h 5.6 km/h 95 % 0 mm
10:26 10.9 °C 10 °C 1026.3 hPa South 1.1 km/h 3.7 km/h 94 % 0 mm
10:31 11 °C 10.1 °C 1026.3 hPa South 3.1 km/h 5.6 km/h 94 % 0 mm
10:36 11.6 °C 10.6 °C 1026.3 hPa South 2.1 km/h 5.6 km/h 94 % 0 mm
10:41 12.2 °C 11.1 °C 1026.3 hPa South 1 km/h 3.2 km/h 93 % 0 mm
10:46 12.6 °C 10.8 °C 1026 hPa South 1.9 km/h 5.6 km/h 89 % 0 mm
10:51 12.8 °C 10.4 °C 1026 hPa South 5 km/h 5.6 km/h 85 % 0 mm
10:56 13.3 °C 10.6 °C 1026 hPa South 3.1 km/h 5.6 km/h 84 % 0 mm
11:01 14.1 °C 10.7 °C 1026 hPa South 3.1 km/h 5.6 km/h 80 % 0 mm
11:06 14.4 °C 10.2 °C 1026 hPa South 1.8 km/h 3.7 km/h 76 % 0 mm
11:11 14.9 °C 10.5 °C 1026 hPa South 1.9 km/h 3.7 km/h 75 % 0 mm
11:16 15.6 °C 10.3 °C 1026 hPa South 1 km/h 3.2 km/h 71 % 0 mm
11:21 15.9 °C 9.8 °C 1026 hPa South 0.2 km/h 1.9 km/h 67 % 0 mm
11:26 16.3 °C 10.2 °C 1025.6 hPa South 1.9 km/h 5.6 km/h 67 % 0 mm
11:31 16.8 °C 9.9 °C 1025.6 hPa South 5.3 km/h 5.6 km/h 64 % 0 mm
11:36 17 °C 9.9 °C 1025.6 hPa South 0.2 km/h 5.6 km/h 63 % 0 mm
11:41 17.3 °C 10 °C 1025.6 hPa South 1.1 km/h 5.6 km/h 62 % 0 mm
11:46 17.4 °C 9.6 °C 1025.6 hPa South 3.4 km/h 5.6 km/h 60 % 0 mm
11:51 17.4 °C 9.3 °C 1025.6 hPa South 0.2 km/h 3.7 km/h 59 % 0 mm
11:56 17.7 °C 9.6 °C 1025.3 hPa South 1 km/h 3.7 km/h 59 % 0 mm
12:01 18.2 °C 8.2 °C 1025.3 hPa South 4.8 km/h 7.4 km/h 52 % 0 mm
12:06 18.3 °C 8.2 °C 1025.3 hPa South 3.7 km/h 5.6 km/h 52 % 0 mm
12:11 18.7 °C 8.1 °C 1025.3 hPa South 7.4 km/h 8 km/h 50 % 0 mm
12:16 18.5 °C 7.3 °C 1025.3 hPa South 3.1 km/h 3.7 km/h 48 % 0 mm
12:17 18.5 °C 7.6 °C 1025.3 hPa South 2.6 km/h 5.6 km/h 49 % 0 mm
12:22 18.8 °C 7.8 °C 1025.3 hPa South 6 km/h 7.4 km/h 49 % 0 mm
12:27 18.9 °C 7.6 °C 1025.3 hPa South 3.1 km/h 5.6 km/h 48 % 0 mm
12:32 19.1 °C 7.2 °C 1025.3 hPa South 2.6 km/h 5.6 km/h 46 % 0 mm
12:37 19.2 °C 7.3 °C 1024.9 hPa South 1.4 km/h 4.8 km/h 46 % 0 mm
12:42 19.3 °C 7.4 °C 1024.9 hPa South 5.5 km/h 7.4 km/h 46 % 0 mm
12:47 19.3 °C 7.4 °C 1024.9 hPa South 1.8 km/h 5.6 km/h 46 % 0 mm
12:52 19.7 °C 7.4 °C 1024.9 hPa South 4.5 km/h 5.6 km/h 45 % 0 mm
13:08 19.9 °C 7.3 °C 1024.6 hPa South 7.1 km/h 7.4 km/h 44 % 0 mm
13:13 20.1 °C 7.1 °C 1024.6 hPa South 5.6 km/h 7.4 km/h 43 % 0 mm
13:18 19.9 °C 7.3 °C 1024.6 hPa South 2.9 km/h 5.6 km/h 44 % 0 mm
13:23 20.1 °C 7.1 °C 1024.3 hPa South 0.8 km/h 1.9 km/h 43 % 0 mm
13:28 20.3 °C 7 °C 1024.3 hPa South 2.7 km/h 4.8 km/h 42 % 0 mm
13:33 20.4 °C 7.1 °C 1024.3 hPa South 3.2 km/h 5.6 km/h 42 % 0 mm
13:38 20 °C 6.7 °C 1024.3 hPa South 5.1 km/h 5.6 km/h 42 % 0 mm
13:43 19.9 °C 6.9 °C 1024.3 hPa South 2.6 km/h 3.7 km/h 43 % 0 mm
13:48 20 °C 7.1 °C 1024.3 hPa South 0.5 km/h 1.9 km/h 43 % 0 mm
14:01 21 °C 7.2 °C 1023.9 hPa South 3.7 km/h 3.7 km/h 41 % 0 mm
14:06 21.4 °C 6.5 °C 1023.9 hPa South 5.5 km/h 8 km/h 38 % 0 mm
14:11 21.2 °C 6.3 °C 1023.9 hPa South 6.1 km/h 7.4 km/h 38 % 0 mm
14:16 21.2 °C 6.3 °C 1023.9 hPa South 0.8 km/h 5.6 km/h 38 % 0 mm
14:21 21.1 °C 5.4 °C 1023.9 hPa South 5 km/h 7.4 km/h 36 % 0 mm
14:26 21 °C 5.3 °C 1023.9 hPa South 2.1 km/h 7.4 km/h 36 % 0 mm
14:31 21.1 °C 5 °C 1023.9 hPa South 1.6 km/h 5.6 km/h 35 % 0 mm
14:36 21.2 °C 5.1 °C 1023.9 hPa South 5.8 km/h 9.3 km/h 35 % 0 mm
14:41 21.3 °C 4.8 °C 1023.9 hPa South 5.3 km/h 8 km/h 34 % 0 mm
14:46 21.2 °C 4.7 °C 1023.9 hPa South 1.4 km/h 5.6 km/h 34 % 0 mm
14:51 21.3 °C 4.8 °C 1023.9 hPa South 4.2 km/h 7.4 km/h 34 % 0 mm
14:56 21.4 °C 4.4 °C 1023.9 hPa South 3.7 km/h 5.6 km/h 33 % 0 mm
15:01 21.5 °C 4.9 °C 1023.9 hPa South 8.4 km/h 11.1 km/h 34 % 0 mm
15:06 21.4 °C 4.9 °C 1023.9 hPa South 5.6 km/h 7.4 km/h 34 % 0 mm
15:12 21.3 °C 4.8 °C 1023.9 hPa South 0.3 km/h   34 % 0 mm
15:17 21.2 °C 3.8 °C 1023.9 hPa South 8.4 km/h 14.8 km/h 32 % 0 mm
15:22 21.1 °C 4.6 °C 1023.9 hPa South 8 km/h 9.3 km/h 34 % 0 mm
15:27 21 °C 4.1 °C 1023.9 hPa SSW 8.5 km/h 13 km/h 33 % 0 mm
15:32 21 °C 4.6 °C 1024.3 hPa SSW 9.3 km/h 11.3 km/h 34 % 0 mm
15:37 20.9 °C 4 °C 1024.3 hPa SSW 8.5 km/h 8.5 km/h 33 % 0 mm
15:42 20.8 °C 4.8 °C 1024.3 hPa SSE 8.4 km/h 14.8 km/h 35 % 0 mm
15:47 20.6 °C 4.1 °C 1024.3 hPa SSW 7.9 km/h 11.1 km/h 34 % 0 mm
15:52 20.5 °C 3.7 °C 1024.3 hPa SSW 6.4 km/h 16.7 km/h 33 % 0 mm
15:57 20.6 °C 4.6 °C 1024.3 hPa SSW 10.5 km/h 14.5 km/h 35 % 0 mm
16:02 20.4 °C 3.6 °C 1024.3 hPa South 12.6 km/h 18.5 km/h 33 % 0 mm
16:07 20.3 °C 3.1 °C 1024.3 hPa SSW 9.8 km/h 14.8 km/h 32 % 0 mm
16:12 20.2 °C 3.4 °C 1024.3 hPa SSW 9.8 km/h 14.8 km/h 33 % 0 mm
16:17 20 °C 3.2 °C 1024.3 hPa SSW 10.5 km/h 14.8 km/h 33 % 0 mm
16:22 19.8 °C 3.4 °C 1024.3 hPa SSW 8.4 km/h 11.3 km/h 34 % 0 mm
16:27 19.6 °C 3.7 °C 1024.3 hPa SSW 9.2 km/h 12.9 km/h 35 % 0 mm
16:32 19.4 °C 5.1 °C 1024.3 hPa SSW 8.9 km/h 13 km/h 39 % 0 mm
16:37 19.3 °C 5.7 °C 1024.3 hPa SSW 12.4 km/h 14.8 km/h 41 % 0 mm
16:42 19.1 °C 5.6 °C 1024.3 hPa SSW 13 km/h 20.4 km/h 41 % 0 mm
16:47 18.9 °C 5.1 °C 1024.3 hPa SSW 9 km/h 17.7 km/h 40 % 0 mm
16:52 18.9 °C 4.6 °C 1024.3 hPa SSW 11.9 km/h 18.5 km/h 39 % 0 mm
16:57 18.8 °C 4.2 °C 1024.6 hPa SSW 8.4 km/h 13 km/h 38 % 0 mm
17:02 18.8 °C 4.2 °C 1024.3 hPa SSW 9.7 km/h 13 km/h 38 % 0 mm
17:07 18.8 °C 4.2 °C 1024.6 hPa SSW 6.8 km/h 9.3 km/h 38 % 0 mm
17:12 18.8 °C 4.9 °C 1024.6 hPa SSW 9.2 km/h 13 km/h 40 % 0 mm
17:17 18.7 °C 5.2 °C 1024.6 hPa SSW 10.1 km/h 18.5 km/h 41 % 0 mm
17:22 18.4 °C 7.2 °C 1024.6 hPa SSW 12.1 km/h 16.7 km/h 48 % 0 mm
17:27 18 °C 8.3 °C 1024.6 hPa South 15.6 km/h 18.5 km/h 53 % 0 mm
17:32 17.7 °C 8.3 °C 1024.6 hPa South 15.3 km/h 16.7 km/h 54 % 0 mm
17:37 17.5 °C 8.3 °C 1024.6 hPa South 13 km/h 19.3 km/h 55 % 0 mm
17:42 17.2 °C 8.4 °C 1024.9 hPa South 8.9 km/h 18.5 km/h 56 % 0 mm
17:47 17 °C 8.4 °C 1024.9 hPa SSW 12.1 km/h 20.4 km/h 57 % 0 mm
17:52 16.7 °C 8.4 °C 1024.9 hPa South 12.2 km/h 18.5 km/h 58 % 0 mm
17:57 16.5 °C 8.4 °C 1024.9 hPa South 11.3 km/h 14.8 km/h 59 % 0 mm
18:02 16.3 °C 8.3 °C 1025.3 hPa South 10.6 km/h 14.8 km/h 59 % 0 mm
18:07 16.1 °C 8.3 °C 1025.3 hPa SSW 8.2 km/h 14.8 km/h 60 % 0 mm
18:12 15.9 °C 8.4 °C 1025.3 hPa South 11.1 km/h 20.4 km/h 61 % 0 mm
18:17 15.7 °C 8.4 °C 1025.3 hPa South 9.3 km/h 14.8 km/h 62 % 0 mm
18:22 15.5 °C 8.5 °C 1025.3 hPa SSW 14.6 km/h 20.4 km/h 63 % 0 mm
18:27 15.1 °C 9 °C 1025.3 hPa South 16.7 km/h 25.9 km/h 67 % 0 mm
18:32 14.7 °C 9.3 °C 1025.3 hPa SSW 12.6 km/h 20.4 km/h 70 % 0 mm
18:37 14.4 °C 9.2 °C 1025.3 hPa South 10.5 km/h 14.8 km/h 71 % 0 mm
18:42 14.2 °C 9.2 °C 1025.6 hPa South 11.7 km/h 16.7 km/h 72 % 0 mm
18:47 14 °C 9.2 °C 1025.6 hPa South 9.8 km/h 13 km/h 73 % 0 mm
18:52 13.8 °C 9.2 °C 1025.6 hPa SSW 4.7 km/h 11.1 km/h 74 % 0 mm
18:57 13.6 °C 9.3 °C 1025.6 hPa South 9.7 km/h 13 km/h 75 % 0 mm
19:02 13.4 °C 9.1 °C 1025.6 hPa SSW 6.9 km/h 11.1 km/h 75 % 0 mm
19:07 13.3 °C 9.2 °C 1025.6 hPa South 10.9 km/h 18.5 km/h 76 % 0 mm
19:12 13.2 °C 9.3 °C 1025.6 hPa South 8 km/h 9.3 km/h 77 % 0 mm
19:17 13.1 °C 9.2 °C 1025.6 hPa SSE 8.7 km/h 11.1 km/h 77 % 0 mm
19:22 13 °C 9.3 °C 1026 hPa South 9.3 km/h 13 km/h 78 % 0 mm
19:27 12.8 °C 9.1 °C 1026 hPa South 5.8 km/h 7.4 km/h 78 % 0 mm
19:32 12.7 °C 9.2 °C 1026 hPa SSW 9.5 km/h 16.7 km/h 79 % 0 mm
19:37 12.7 °C 9.1 °C 1026 hPa South 9 km/h 16.1 km/h 79 % 0 mm
19:42 12.6 °C 9.2 °C 1026 hPa SSW 9.3 km/h 13 km/h 80 % 0 mm
19:47 12.5 °C 9.2 °C 1026 hPa SSW 8.7 km/h 13 km/h 80 % 0 mm
19:52 12.4 °C 9.1 °C 1026 hPa SSW 7.9 km/h 11.1 km/h 80 % 0 mm
19:57 12.3 °C 8.9 °C 1026.3 hPa SSW 10.6 km/h 16.7 km/h 80 % 0 mm
20:02 12.2 °C 9.1 °C 1026.3 hPa South 10.3 km/h 13 km/h 81 % 0 mm
20:07 12.2 °C 9 °C 1026.3 hPa SSW 11.9 km/h 17.7 km/h 81 % 0 mm
20:12 12.1 °C 8.9 °C 1026.3 hPa SSW 6.8 km/h 9.7 km/h 81 % 0 mm
20:17 11.9 °C 8.8 °C 1026.3 hPa North 11.9 km/h 18.5 km/h 81 % 0 mm
20:22 11.9 °C 8.7 °C 1026.3 hPa SSW 9.5 km/h 14.5 km/h 81 % 0 mm
20:27 11.8 °C 8.8 °C 1026.3 hPa SSW 10.6 km/h 14.8 km/h 82 % 0 mm
20:32 11.7 °C 8.7 °C 1026.3 hPa SSW 10.6 km/h 14.8 km/h 82 % 0 mm
20:37 11.6 °C 8.6 °C 1026.3 hPa SW 14.6 km/h 18.5 km/h 82 % 0 mm
20:42 11.5 °C 8.7 °C 1026.6 hPa SSW 10.5 km/h 18.5 km/h 83 % 0 mm
20:47 11.4 °C 8.6 °C 1026.6 hPa SSW 14.8 km/h 25.9 km/h 83 % 0 mm
20:52 11.3 °C 8.6 °C 1026.6 hPa SSW 17.5 km/h 25.9 km/h 83 % 0 mm
20:57 11.3 °C 8.7 °C 1027 hPa SW 13.7 km/h 22.5 km/h 84 % 0 mm
21:02 11.3 °C 8.7 °C 1027 hPa SW 19 km/h 29.6 km/h 84 % 0 mm
21:03 11.3 °C 8.7 °C 1027 hPa SW 16.1 km/h 29.6 km/h 84 % 0 mm
21:08 11.3 °C 8.7 °C 1027 hPa SSW 8.5 km/h 20.4 km/h 84 % 0 mm
21:13 11.2 °C 8.6 °C 1027 hPa SSW 10.1 km/h 13 km/h 84 % 0 mm
21:18 11.2 °C 8.7 °C 1027 hPa South 17.1 km/h 18.5 km/h 85 % 0 mm
21:23 11.1 °C 8.7 °C 1027 hPa South 12.6 km/h 22.2 km/h 85 % 0 mm
21:28 11.1 °C 8.6 °C 1027 hPa SSW 11.3 km/h 22.2 km/h 85 % 0 mm
21:33 11 °C 8.6 °C 1027 hPa SSW 10.5 km/h 18.5 km/h 85 % 0 mm
21:38 11 °C 8.7 °C 1027 hPa South 14.3 km/h 25.9 km/h 86 % 0 mm
21:43 10.9 °C 8.6 °C 1027 hPa South 11.3 km/h 14.5 km/h 86 % 0 mm
21:48 10.9 °C 8.6 °C 1027 hPa South 15 km/h 15 km/h 86 % 0 mm
21:53 10.9 °C 8.6 °C 1027 hPa South 5.5 km/h 13 km/h 86 % 0 mm
21:58 10.8 °C 8.6 °C 1027 hPa South 5.1 km/h 9.3 km/h 86 % 0 mm
22:03 10.8 °C 8.6 °C 1026.6 hPa South 6.4 km/h 11.1 km/h 86 % 0 mm
22:08 10.7 °C 8.6 °C 1026.6 hPa South 5.1 km/h 9.3 km/h 87 % 0 mm
22:13 10.6 °C 8.6 °C 1026.6 hPa South 5.5 km/h 13 km/h 87 % 0 mm
22:18 10.6 °C 8.5 °C 1026.6 hPa South 5.1 km/h 9.7 km/h 87 % 0 mm
22:23 10.6 °C 8.7 °C 1026.6 hPa South 7.6 km/h 8 km/h 88 % 0 mm
22:28 10.6 °C 8.7 °C 1026.6 hPa South 5.3 km/h 7.4 km/h 88 % 0 mm
22:33 10.5 °C 8.6 °C 1026.6 hPa South 6.6 km/h 9.3 km/h 88 % 0 mm
22:38 10.5 °C 8.6 °C 1026.6 hPa North 6.6 km/h 11.1 km/h 88 % 0 mm
22:43 10.6 °C 8.7 °C 1026.6 hPa South 7.2 km/h 11.1 km/h 88 % 0 mm
22:48 10.6 °C 8.7 °C 1026.6 hPa South 6.3 km/h 13 km/h 88 % 0 mm
22:53 10.6 °C 8.7 °C 1026.6 hPa South 6.8 km/h 14.5 km/h 88 % 0 mm
22:58 10.6 °C 8.7 °C 1026.6 hPa South 6.1 km/h 8 km/h 88 % 0 mm
23:03 10.6 °C 8.7 °C 1026.6 hPa North 6.9 km/h 11.3 km/h 88 % 0 mm
23:08 10.5 °C 8.6 °C 1026.6 hPa South 5.8 km/h 9.3 km/h 88 % 0 mm
23:13 10.5 °C 8.6 °C 1026.6 hPa South 7.2 km/h 13 km/h 88 % 0 mm
23:18 10.4 °C 8.5 °C 1026.6 hPa South 4 km/h 6.4 km/h 88 % 0 mm
23:23 10.4 °C 8.5 °C 1026.6 hPa South 6.4 km/h 11.1 km/h 88 % 0 mm
23:28 10.3 °C 8.6 °C 1026.6 hPa South 6 km/h 11.3 km/h 89 % 0 mm
23:33 10.3 °C 8.6 °C 1026.6 hPa South 6 km/h 7.4 km/h 89 % 0 mm
23:38 10.2 °C 8.5 °C 1026.6 hPa South 4.5 km/h 9.3 km/h 89 % 0 mm
23:43 10.2 °C 8.5 °C 1026.6 hPa South 5.6 km/h 8 km/h 89 % 0 mm
23:48 10.2 °C 8.5 °C 1026.6 hPa South 7.4 km/h 13 km/h 89 % 0 mm
23:53 10.2 °C 8.4 °C 1026.6 hPa South 4.8 km/h 8 km/h 89 % 0 mm
23:58 10.2 °C 8.4 °C 1026.6 hPa South 7.1 km/h 11.1 km/h 89 % 0 mm
Ararat Weather
Compliments of Weather Underground - 2.25 mb
Click here to send mail.


ABOUT

Live weather data from Ararat, Victoria, Australia, 3377
Data uploaded from Cumulus every 5 minutes to Weather Underground.
This site then downloads the raw data for formatting and display.
Metric and imperial data can be displayed. Graphs and historical data available.
Includes Sun and Moon times and rain image live from BOM.

Check out Ararat Weather on Facebook, Twitter and Google +

Help support ongoing costs by checking out the ads





Follow @AraratWeather